Time;durP1;ratioP1;P1;durP2;ratioP2;P2;SDS_P1;SDS_P2;PMS_P1;PMS_P2;Temp;Humidity;BMP_temperature;BMP_pressure;BME280_temperature;BME280_humidity;BME280_pressure;Samples;Min_cycle;Max_cycle;Signal;HPM_P1;HPM_P2
2023/10/26 00:00:19;;;;;;;0.90;0.30;;;14.60;99.90;;;;;;4992976;28;20100;-38
2023/10/26 00:02:45;;;;;;;2.08;0.30;;;14.60;99.90;;;;;;4992952;28;20023;-38
2023/10/26 00:05:10;;;;;;;0.70;0.30;;;14.70;99.90;;;;;;4992792;28;20018;-38
2023/10/26 00:07:36;;;;;;;0.63;0.30;;;14.60;99.90;;;;;;4992847;28;20085;-38
2023/10/26 00:10:01;;;;;;;0.73;0.30;;;14.60;99.90;;;;;;4992894;28;20031;-38
2023/10/26 00:12:28;;;;;;;0.85;0.30;;;14.60;99.90;;;;;;4992734;28;20023;-38
2023/10/26 00:14:53;;;;;;;0.95;0.30;;;14.70;99.90;;;;;;4992675;28;20472;-38
2023/10/26 00:17:19;;;;;;;0.50;0.20;;;14.70;99.90;;;;;;4992873;28;20038;-38
2023/10/26 00:19:45;;;;;;;0.85;0.40;;;14.60;99.90;;;;;;4992577;28;20034;-38
2023/10/26 00:22:10;;;;;;;0.73;0.30;;;14.70;99.90;;;;;;4992606;28;20076;-38
2023/10/26 00:24:37;;;;;;;0.82;0.30;;;14.70;99.90;;;;;;4992541;28;20029;-38
2023/10/26 00:27:03;;;;;;;1.42;0.30;;;14.60;99.90;;;;;;4992332;28;20022;-38
2023/10/26 00:29:29;;;;;;;0.45;0.20;;;14.60;99.90;;;;;;4992533;28;20105;-38
2023/10/26 00:31:55;;;;;;;1.33;0.40;;;14.60;99.90;;;;;;4992581;28;20096;-38
2023/10/26 00:34:21;;;;;;;2.67;0.30;;;14.60;99.90;;;;;;4992342;28;20482;-38
2023/10/26 00:36:47;;;;;;;0.52;0.22;;;14.60;99.90;;;;;;4992250;28;20026;-38
2023/10/26 00:39:13;;;;;;;0.73;0.13;;;14.60;99.90;;;;;;4992385;28;20415;-38
2023/10/26 00:41:39;;;;;;;0.70;0.28;;;14.60;99.90;;;;;;4992641;28;20456;-38
2023/10/26 00:44:04;;;;;;;1.00;0.30;;;14.60;99.90;;;;;;4991857;28;20831;-38
2023/10/26 00:46:31;;;;;;;1.63;0.32;;;14.60;99.90;;;;;;4992250;28;20034;-38
2023/10/26 00:48:57;;;;;;;0.70;0.22;;;14.60;99.90;;;;;;4992340;28;20476;-38
2023/10/26 00:51:23;;;;;;;0.50;0.20;;;14.60;99.90;;;;;;4992232;28;20093;-38
2023/10/26 00:53:49;;;;;;;1.15;0.50;;;14.60;99.90;;;;;;4992146;28;20069;-38
2023/10/26 00:56:20;;;;;;;0.28;0.20;;;14.60;99.90;;;;;;4991957;28;20030;-38
2023/10/26 00:58:47;;;;;;;0.40;0.30;;;14.60;99.90;;;;;;4992218;28;20092;-38
2023/10/26 01:01:15;;;;;;;3.95;0.30;;;14.60;99.90;;;;;;4992058;28;20026;-38
2023/10/26 01:03:41;;;;;;;0.88;0.28;;;14.60;99.90;;;;;;4992439;28;20026;-38
2023/10/26 01:06:08;;;;;;;3.53;0.20;;;14.60;99.90;;;;;;4991916;28;20022;-38
2023/10/26 01:08:34;;;;;;;1.88;0.38;;;14.60;99.90;;;;;;4992001;28;20046;-38
2023/10/26 01:11:01;;;;;;;0.50;0.20;;;14.60;99.90;;;;;;4992075;28;20030;-38
2023/10/26 01:13:29;;;;;;;1.75;0.40;;;14.60;99.90;;;;;;4991930;28;20034;-38
2023/10/26 01:15:55;;;;;;;0.93;0.40;;;14.60;99.90;;;;;;4991955;28;20046;-38
2023/10/26 01:18:21;;;;;;;0.77;0.25;;;14.60;99.90;;;;;;4992039;28;20443;-38
2023/10/26 01:20:47;;;;;;;0.93;0.30;;;14.60;99.90;;;;;;4992277;28;20374;-38
2023/10/26 01:23:13;;;;;;;2.25;0.50;;;14.60;99.90;;;;;;4991890;28;20102;-38
2023/10/26 01:25:39;;;;;;;0.60;0.30;;;14.60;99.90;;;;;;4991725;28;20022;-38
2023/10/26 01:28:06;;;;;;;0.60;0.30;;;14.60;99.90;;;;;;4991748;28;20034;-38
2023/10/26 01:30:32;;;;;;;0.82;0.38;;;14.60;99.90;;;;;;4992039;28;20030;-38
2023/10/26 01:32:58;;;;;;;0.68;0.30;;;14.60;99.90;;;;;;4991912;28;20030;-38
2023/10/26 01:35:24;;;;;;;1.08;0.40;;;14.60;99.90;;;;;;4991699;28;20057;-38
2023/10/26 01:37:49;;;;;;;0.22;0.20;;;14.60;99.90;;;;;;4991648;28;20027;-38
2023/10/26 01:40:15;;;;;;;2.15;0.32;;;14.60;99.90;;;;;;4991648;28;20062;-38
2023/10/26 01:42:41;;;;;;;3.05;0.40;;;14.60;99.90;;;;;;4991650;28;20061;-38
2023/10/26 01:45:07;;;;;;;0.75;0.32;;;14.60;99.90;;;;;;4992029;28;20476;-38
2023/10/26 01:47:32;;;;;;;0.50;0.30;;;14.60;99.90;;;;;;4991691;28;20027;-38
2023/10/26 01:49:59;;;;;;;2.00;0.30;;;14.60;99.90;;;;;;4991774;28;20535;-38
2023/10/26 01:52:25;;;;;;;0.70;0.22;;;14.60;99.90;;;;;;4991607;28;20026;-38
2023/10/26 01:54:51;;;;;;;0.90;0.30;;;14.60;99.90;;;;;;4991555;28;20428;-38
2023/10/26 01:57:17;;;;;;;0.60;0.20;;;14.60;99.90;;;;;;4995187;28;20105;-38
2023/10/26 01:59:42;;;;;;;2.17;0.40;;;14.60;99.90;;;;;;4995282;28;20037;-38
2023/10/26 02:02:08;;;;;;;0.70;0.40;;;14.60;99.90;;;;;;4995356;28;20022;-38
2023/10/26 02:04:34;;;;;;;1.10;0.40;;;14.60;99.90;;;;;;4995681;28;20720;-38
2023/10/26 02:06:59;;;;;;;0.65;0.20;;;14.50;99.90;;;;;;4994960;28;20022;-38
2023/10/26 02:09:25;;;;;;;1.10;0.40;;;14.50;99.90;;;;;;4995239;28;20037;-38
2023/10/26 02:11:50;;;;;;;3.03;0.40;;;14.50;99.90;;;;;;4995069;28;20105;-38
2023/10/26 02:14:16;;;;;;;0.85;0.50;;;14.50;99.90;;;;;;4995077;28;20030;-38
2023/10/26 02:16:42;;;;;;;0.52;0.20;;;14.60;99.90;;;;;;4994976;28;20100;-38
2023/10/26 02:19:07;;;;;;;1.20;0.47;;;14.50;99.90;;;;;;4995002;28;20106;-38
2023/10/26 02:21:35;;;;;;;1.05;0.40;;;14.50;99.90;;;;;;4994978;28;20033;-38
2023/10/26 02:24:00;;;;;;;0.60;0.30;;;14.50;99.90;;;;;;4995112;28;20072;-38
2023/10/26 02:26:26;;;;;;;0.60;0.38;;;14.60;99.90;;;;;;4994743;28;20022;-38
2023/10/26 02:28:52;;;;;;;0.55;0.30;;;14.50;99.90;;;;;;4994949;28;20105;-38
2023/10/26 02:31:17;;;;;;;1.00;0.50;;;14.50;99.90;;;;;;4994881;28;20022;-38
2023/10/26 02:33:43;;;;;;;1.42;0.38;;;14.50;99.90;;;;;;4994722;28;20559;-38
2023/10/26 02:36:08;;;;;;;0.75;0.32;;;14.50;99.90;;;;;;4994479;28;20025;-38
2023/10/26 02:38:34;;;;;;;1.80;0.40;;;14.50;99.90;;;;;;4994783;28;20392;-38
2023/10/26 02:41:04;;;;;;;0.52;0.32;;;14.50;99.90;;;;;;4994504;28;20030;-38
2023/10/26 02:43:29;;;;;;;0.70;0.40;;;14.50;99.90;;;;;;4994429;28;20026;-38
2023/10/26 02:46:04;;;;;;;0.38;0.17;;;14.50;99.90;;;;;;4994581;28;20022;-38
2023/10/26 02:48:30;;;;;;;0.20;0.20;;;14.50;99.90;;;;;;4994336;28;20027;-38
2023/10/26 02:50:56;;;;;;;1.30;0.50;;;14.50;99.90;;;;;;4994596;28;20022;-38
2023/10/26 02:53:22;;;;;;;0.35;0.15;;;14.50;99.90;;;;;;4994344;28;20037;-38
2023/10/26 02:55:48;;;;;;;0.90;0.35;;;14.50;99.90;;;;;;4994255;28;20105;-38
2023/10/26 02:58:14;;;;;;;1.10;0.40;;;14.50;99.90;;;;;;4994215;28;20118;-38
2023/10/26 03:00:39;;;;;;;0.52;0.20;;;14.50;99.90;;;;;;4994295;28;20026;-38
2023/10/26 03:03:05;;;;;;;0.43;0.20;;;14.50;99.90;;;;;;4994288;28;20014;-38
2023/10/26 03:05:33;;;;;;;0.60;0.35;;;14.50;99.90;;;;;;4994539;28;20022;-38
2023/10/26 03:07:58;;;;;;;0.80;0.40;;;14.50;99.90;;;;;;4993975;28;20390;-38
2023/10/26 03:10:24;;;;;;;1.63;0.40;;;14.50;99.90;;;;;;4994089;28;20026;-38
2023/10/26 03:12:50;;;;;;;1.23;0.60;;;14.50;99.90;;;;;;4994047;28;20387;-38
2023/10/26 03:15:16;;;;;;;1.00;0.30;;;14.50;99.90;;;;;;4993895;28;20084;-38
2023/10/26 03:17:42;;;;;;;0.70;0.40;;;14.50;99.90;;;;;;4993712;28;20542;-38
2023/10/26 03:20:08;;;;;;;1.20;0.52;;;14.50;99.90;;;;;;4994119;28;20038;-38
2023/10/26 03:22:34;;;;;;;0.50;0.40;;;14.50;99.90;;;;;;4976400;28;20049;-38
2023/10/26 03:25:00;;;;;;;1.08;0.55;;;14.50;99.90;;;;;;4993586;28;20464;-38
2023/10/26 03:27:26;;;;;;;3.08;0.60;;;14.50;99.90;;;;;;4993731;28;20026;-38
2023/10/26 03:29:52;;;;;;;0.70;0.40;;;14.50;99.90;;;;;;4993716;28;20025;-38
2023/10/26 03:32:18;;;;;;;1.60;0.60;;;14.50;99.90;;;;;;4993633;28;20022;-38
2023/10/26 03:34:43;;;;;;;2.22;0.57;;;14.50;99.90;;;;;;4993536;28;20072;-38
2023/10/26 03:37:09;;;;;;;0.68;0.45;;;14.50;99.90;;;;;;4993850;28;20141;-38
2023/10/26 03:39:35;;;;;;;3.33;0.65;;;14.50;99.90;;;;;;4993466;28;20030;-38
2023/10/26 03:42:01;;;;;;;3.70;0.70;;;14.50;99.90;;;;;;4993410;28;20027;-38
2023/10/26 03:44:26;;;;;;;0.75;0.40;;;14.50;99.90;;;;;;4993236;28;20045;-38
2023/10/26 03:46:52;;;;;;;1.30;0.50;;;14.50;99.90;;;;;;4975671;28;20022;-38
2023/10/26 03:49:19;;;;;;;1.10;0.70;;;14.50;99.90;;;;;;4993576;28;20019;-38
2023/10/26 03:51:46;;;;;;;0.73;0.40;;;14.50;99.90;;;;;;4993329;28;20073;-38
2023/10/26 03:54:12;;;;;;;2.45;0.57;;;14.50;99.90;;;;;;4993075;28;20022;-38
2023/10/26 03:56:38;;;;;;;1.00;0.60;;;14.50;99.90;;;;;;4993142;28;20092;-38
2023/10/26 03:59:03;;;;;;;1.23;0.68;;;14.50;99.90;;;;;;4975673;28;20026;-38
2023/10/26 04:01:29;;;;;;;2.00;0.50;;;14.40;99.90;;;;;;4992989;28;20030;-38
2023/10/26 04:03:55;;;;;;;1.30;0.50;;;14.50;99.90;;;;;;4993033;28;20019;-38
2023/10/26 04:06:20;;;;;;;0.40;0.30;;;14.40;99.90;;;;;;4992832;28;20468;-38
2023/10/26 04:08:46;;;;;;;1.25;0.68;;;14.40;99.90;;;;;;4993079;28;20109;-38
2023/10/26 04:11:18;;;;;;;1.42;0.50;;;14.50;99.90;;;;;;4992933;28;20034;-38
2023/10/26 04:13:44;;;;;;;1.00;0.60;;;14.50;99.90;;;;;;4993023;28;20068;-38
2023/10/26 04:16:11;;;;;;;1.20;0.55;;;14.50;99.90;;;;;;4992513;28;20030;-38
2023/10/26 04:18:37;;;;;;;1.10;0.60;;;14.50;99.90;;;;;;4992457;28;20038;-38
2023/10/26 04:21:04;;;;;;;1.42;0.55;;;14.50;99.90;;;;;;4992742;28;20396;-38
2023/10/26 04:23:29;;;;;;;1.08;0.50;;;14.50;99.90;;;;;;4992775;28;20022;-38
2023/10/26 04:25:55;;;;;;;0.98;0.52;;;14.40;99.90;;;;;;4992604;28;20030;-38
2023/10/26 04:28:21;;;;;;;2.42;0.50;;;14.40;99.90;;;;;;4992655;28;20030;-38
2023/10/26 04:30:47;;;;;;;2.00;0.70;;;14.50;99.90;;;;;;4992439;28;20030;-38
2023/10/26 04:33:17;;;;;;;0.88;0.50;;;14.50;99.90;;;;;;4992538;28;20369;-38
2023/10/26 04:35:43;;;;;;;1.80;0.63;;;14.40;99.90;;;;;;4992797;28;20038;-38
2023/10/26 04:38:09;;;;;;;1.13;0.50;;;14.40;99.90;;;;;;4992563;28;20050;-38
2023/10/26 04:40:39;;;;;;;0.98;0.50;;;14.50;99.90;;;;;;4992652;28;20550;-38
2023/10/26 04:43:06;;;;;;;0.93;0.45;;;14.50;99.90;;;;;;4992570;28;20027;-38
2023/10/26 04:45:32;;;;;;;2.10;0.50;;;14.40;99.90;;;;;;4992332;28;20042;-38
2023/10/26 04:47:58;;;;;;;2.08;0.60;;;14.40;99.90;;;;;;4992349;28;20033;-38
2023/10/26 04:50:25;;;;;;;1.00;0.50;;;14.40;99.90;;;;;;4992597;28;20084;-38
2023/10/26 04:52:51;;;;;;;0.98;0.43;;;14.40;99.90;;;;;;4992307;28;20034;-38
2023/10/26 04:55:16;;;;;;;1.05;0.40;;;14.40;99.90;;;;;;4992244;28;20058;-38
2023/10/26 04:57:42;;;;;;;0.65;0.40;;;14.40;99.90;;;;;;4992386;28;20121;-38
2023/10/26 05:00:11;;;;;;;1.10;0.47;;;14.40;99.90;;;;;;4992275;28;20050;-38
2023/10/26 05:02:38;;;;;;;4.53;1.40;;;14.50;99.90;;;;;;4992333;28;20391;-38
2023/10/26 05:05:04;;;;;;;1.20;0.70;;;14.40;99.90;;;;;;4992163;28;20030;-38
2023/10/26 05:07:30;;;;;;;1.23;0.57;;;14.40;99.90;;;;;;4992300;28;20027;-38
2023/10/26 05:09:57;;;;;;;3.35;1.10;;;14.40;99.90;;;;;;4992209;28;20034;-38
2023/10/26 05:12:22;;;;;;;1.95;0.90;;;14.40;99.90;;;;;;4992076;28;20018;-38
2023/10/26 05:14:48;;;;;;;1.35;0.73;;;14.40;99.90;;;;;;4992015;28;20101;-38
2023/10/26 05:17:14;;;;;;;1.67;0.77;;;14.40;99.90;;;;;;4992031;28;20030;-38
2023/10/26 05:19:40;;;;;;;1.85;0.70;;;14.40;99.90;;;;;;4992160;28;20022;-38
2023/10/26 05:22:05;;;;;;;1.70;0.80;;;14.40;99.90;;;;;;4992169;28;20496;-38
2023/10/26 05:24:31;;;;;;;2.90;1.00;;;14.40;99.90;;;;;;4992178;28;20022;-38
2023/10/26 05:26:58;;;;;;;1.10;0.68;;;14.40;99.90;;;;;;4991939;28;20022;-37
2023/10/26 05:29:23;;;;;;;1.85;0.73;;;14.40;99.90;;;;;;4974695;28;20019;-38
2023/10/26 05:31:49;;;;;;;2.30;0.80;;;14.40;99.90;;;;;;4994901;28;20038;-38
2023/10/26 05:34:14;;;;;;;1.45;0.70;;;14.40;99.90;;;;;;4995930;28;20034;-38
2023/10/26 05:36:40;;;;;;;1.70;0.80;;;14.40;99.90;;;;;;4996049;28;20495;-38
2023/10/26 05:39:06;;;;;;;2.10;0.90;;;14.40;99.90;;;;;;4996006;28;20213;-38
2023/10/26 05:41:33;;;;;;;2.25;0.90;;;14.40;99.90;;;;;;4996046;28;20491;-38
2023/10/26 05:43:59;;;;;;;1.20;0.70;;;14.40;99.90;;;;;;4995982;28;20072;-38
2023/10/26 05:46:25;;;;;;;1.00;0.57;;;14.40;99.90;;;;;;4995437;28;20753;-38
2023/10/26 05:48:51;;;;;;;2.50;0.70;;;14.40;99.90;;;;;;4995955;28;20061;-38
2023/10/26 05:51:16;;;;;;;1.70;0.80;;;14.40;99.90;;;;;;4995775;28;20026;-38
2023/10/26 05:53:42;;;;;;;1.70;0.70;;;14.40;99.90;;;;;;4995934;28;20395;-38
2023/10/26 05:56:08;;;;;;;1.20;0.63;;;14.40;99.90;;;;;;4995811;28;20042;-38
2023/10/26 05:58:34;;;;;;;1.30;0.63;;;14.40;99.90;;;;;;4995911;28;20113;-38
2023/10/26 06:01:00;;;;;;;1.33;0.65;;;14.30;99.90;;;;;;4995759;28;20105;-38
2023/10/26 06:03:26;;;;;;;2.53;0.65;;;14.40;99.90;;;;;;4995672;28;20373;-38
2023/10/26 06:05:58;;;;;;;1.25;0.70;;;14.40;99.90;;;;;;4995519;28;20027;-38
2023/10/26 06:08:24;;;;;;;1.20;0.50;;;14.30;99.90;;;;;;4995444;28;20014;-38
2023/10/26 06:10:49;;;;;;;1.42;0.93;;;14.40;99.90;;;;;;4995203;28;20056;-38
2023/10/26 06:13:15;;;;;;;0.63;0.43;;;14.40;99.90;;;;;;4995670;28;20026;-38
2023/10/26 06:15:40;;;;;;;2.60;0.80;;;14.40;99.90;;;;;;4995039;28;20503;-38
2023/10/26 06:18:06;;;;;;;3.00;0.90;;;14.40;99.90;;;;;;4995377;28;20030;-38
2023/10/26 06:20:32;;;;;;;1.55;0.70;;;14.40;99.90;;;;;;4995452;28;20472;-38
2023/10/26 06:22:57;;;;;;;0.98;0.50;;;14.40;99.90;;;;;;4995509;28;20079;-38
2023/10/26 06:25:25;;;;;;;1.38;0.80;;;14.40;99.90;;;;;;4995111;28;20081;-38
2023/10/26 06:27:51;;;;;;;1.30;0.73;;;14.40;99.90;;;;;;4995128;28;20056;-38
2023/10/26 06:30:16;;;;;;;1.00;0.60;;;14.40;99.90;;;;;;4994985;28;20061;-38
2023/10/26 06:32:42;;;;;;;2.17;1.13;;;14.40;99.90;;;;;;4977528;28;20031;-38
2023/10/26 06:35:08;;;;;;;1.27;0.75;;;14.40;99.90;;;;;;4994732;28;20033;-38
2023/10/26 06:37:35;;;;;;;1.02;0.63;;;14.40;99.90;;;;;;4994672;28;20076;-38
2023/10/26 06:40:00;;;;;;;1.25;0.60;;;14.40;99.90;;;;;;4994709;28;20472;-37
2023/10/26 06:42:26;;;;;;;1.50;0.80;;;14.40;99.90;;;;;;4994294;28;20031;-38
2023/10/26 06:44:51;;;;;;;0.90;0.65;;;14.40;99.90;;;;;;4994354;28;20035;-38
2023/10/26 06:47:17;;;;;;;2.47;0.65;;;14.40;99.90;;;;;;4994390;28;20022;-38
2023/10/26 06:49:43;;;;;;;1.85;0.80;;;14.40;99.90;;;;;;4994686;28;20058;-38
2023/10/26 06:52:09;;;;;;;1.05;0.68;;;14.30;99.90;;;;;;4994739;28;20049;-38
2023/10/26 06:54:35;;;;;;;0.90;0.65;;;14.40;99.90;;;;;;4994539;28;20488;-38
2023/10/26 06:57:01;;;;;;;1.25;0.70;;;14.40;99.90;;;;;;4976998;28;20085;-38
2023/10/26 06:59:26;;;;;;;3.28;0.90;;;14.40;99.90;;;;;;4994455;28;20026;-38
2023/10/26 07:01:53;;;;;;;1.45;0.80;;;14.30;99.90;;;;;;4994347;28;20031;-38
2023/10/26 07:04:18;;;;;;;1.55;0.68;;;14.30;99.90;;;;;;4994058;28;20023;-38
2023/10/26 07:06:44;;;;;;;1.80;0.80;;;14.30;99.90;;;;;;4993988;28;20365;-38
2023/10/26 07:09:09;;;;;;;1.33;0.70;;;14.40;99.90;;;;;;4994172;28;20023;-38
2023/10/26 07:11:35;;;;;;;1.10;0.70;;;14.30;99.90;;;;;;4994106;28;20161;-37
2023/10/26 07:14:01;;;;;;;2.17;0.80;;;14.30;99.90;;;;;;4993927;28;20018;-38
2023/10/26 07:16:26;;;;;;;1.75;0.60;;;14.30;99.90;;;;;;4994007;28;20038;-38
2023/10/26 07:18:52;;;;;;;1.25;0.80;;;14.40;99.90;;;;;;4994079;28;20026;-38
2023/10/26 07:21:18;;;;;;;1.38;0.70;;;14.40;99.90;;;;;;4993860;28;20049;-38
2023/10/26 07:23:43;;;;;;;1.13;0.70;;;14.40;99.90;;;;;;4993727;28;20468;-38
2023/10/26 07:26:14;;;;;;;1.67;0.68;;;14.40;99.90;;;;;;4993683;28;20043;-38
2023/10/26 07:28:40;;;;;;;0.90;0.55;;;14.40;99.90;;;;;;4993841;28;20072;-38
2023/10/26 07:31:05;;;;;;;1.80;0.77;;;14.40;99.90;;;;;;4993802;28;20027;-38
2023/10/26 07:33:31;;;;;;;3.55;0.85;;;14.30;99.90;;;;;;4993670;28;20037;-38
2023/10/26 07:35:58;;;;;;;1.02;0.70;;;14.40;99.90;;;;;;4993531;28;20034;-38
2023/10/26 07:38:27;;;;;;;0.68;0.60;;;14.40;99.90;;;;;;4993568;28;20034;-38
2023/10/26 07:40:54;;;;;;;0.77;0.60;;;14.30;99.90;;;;;;4993950;28;20030;-38
2023/10/26 07:43:20;;;;;;;1.83;0.70;;;14.40;99.90;;;;;;4993545;28;20022;-38
2023/10/26 07:45:51;;;;;;;2.53;0.60;;;14.30;99.90;;;;;;4998159;23;20043;-38
2023/10/26 07:48:18;;;;;;;1.05;0.60;;;14.40;99.90;;;;;;4973346;28;20360;-43
2023/10/26 07:50:43;;;;;;;1.33;0.80;;;14.40;99.90;;;;;;4973932;28;20066;-43
2023/10/26 07:53:09;;;;;;;1.17;0.68;;;14.40;99.90;;;;;;4973060;28;20472;-39
2023/10/26 07:55:35;;;;;;;1.67;0.85;;;14.40;99.90;;;;;;4973655;28;20031;-39
2023/10/26 07:58:01;;;;;;;1.63;0.80;;;14.40;99.90;;;;;;4973743;28;20176;-41
2023/10/26 08:00:27;;;;;;;1.83;0.73;;;14.30;99.90;;;;;;4972422;28;20105;-38
2023/10/26 08:02:53;;;;;;;1.52;0.68;;;14.40;99.90;;;;;;4973553;28;20502;-41
2023/10/26 08:05:18;;;;;;;1.38;0.70;;;14.40;99.90;;;;;;4973605;28;20031;-40
2023/10/26 08:07:47;;;;;;;0.70;0.55;;;14.40;99.90;;;;;;4973808;28;20106;-41
2023/10/26 08:10:13;;;;;;;2.35;0.70;;;14.30;99.90;;;;;;4973709;28;20054;-40
2023/10/26 08:12:39;;;;;;;0.98;0.68;;;14.40;99.90;;;;;;4973566;28;20455;-40
2023/10/26 08:15:05;;;;;;;1.00;0.70;;;14.40;99.90;;;;;;4973337;28;20041;-41
2023/10/26 08:17:35;;;;;;;1.30;0.60;;;14.40;99.90;;;;;;4973608;28;20058;-42
2023/10/26 08:20:07;;;;;;;0.55;0.45;;;14.40;99.90;;;;;;4973374;28;20149;-42
2023/10/26 08:22:35;;;;;;;1.27;0.63;;;14.40;99.90;;;;;;4973392;28;20034;-38
2023/10/26 08:25:02;;;;;;;1.63;0.70;;;14.40;99.90;;;;;;4973111;28;20110;-40
2023/10/26 08:27:28;;;;;;;0.98;0.60;;;14.40;99.90;;;;;;4973542;28;20111;-40
2023/10/26 08:29:54;;;;;;;1.23;0.70;;;14.40;99.90;;;;;;4973269;28;20034;-40
2023/10/26 08:32:20;;;;;;;1.25;0.65;;;14.40;99.90;;;;;;4973350;28;20027;-40
2023/10/26 08:34:46;;;;;;;0.60;0.40;;;14.40;99.90;;;;;;4973036;28;20369;-38
2023/10/26 08:37:12;;;;;;;1.05;0.70;;;14.40;99.90;;;;;;4972986;28;20484;-41
2023/10/26 08:39:38;;;;;;;0.75;0.50;;;14.40;99.90;;;;;;4973249;28;20093;-38
2023/10/26 08:42:04;;;;;;;1.10;0.70;;;14.40;99.90;;;;;;4972988;28;20496;-37
2023/10/26 08:44:31;;;;;;;1.17;0.60;;;14.40;99.90;;;;;;4972968;28;20058;-40
2023/10/26 08:47:03;;;;;;;1.35;0.60;;;14.40;99.90;;;;;;4973021;28;20099;-40
2023/10/26 08:49:30;;;;;;;0.65;0.47;;;14.40;99.90;;;;;;4973071;28;20122;-40
2023/10/26 08:51:56;;;;;;;1.10;0.50;;;14.40;99.90;;;;;;4972913;28;20030;-40
2023/10/26 08:54:22;;;;;;;1.45;0.55;;;14.40;99.90;;;;;;4972758;28;20027;-41
2023/10/26 08:56:48;;;;;;;1.15;0.60;;;14.40;99.90;;;;;;4972648;28;20388;-40
2023/10/26 08:59:14;;;;;;;0.70;0.50;;;14.40;99.90;;;;;;4972751;28;20031;-40
2023/10/26 09:01:43;;;;;;;0.93;0.50;;;14.40;99.90;;;;;;4972728;28;20484;-40
2023/10/26 09:04:11;;;;;;;1.20;0.47;;;14.40;99.90;;;;;;4972530;28;20468;-40
2023/10/26 09:06:54;;;;;;;0.98;0.57;;;14.40;99.90;;;;;;4972652;28;20050;-40
2023/10/26 09:09:21;;;;;;;0.77;0.50;;;14.40;99.90;;;;;;4972694;28;20034;-41
2023/10/26 09:11:48;;;;;;;1.55;0.55;;;14.40;99.90;;;;;;4972795;28;20031;-40
2023/10/26 09:14:16;;;;;;;0.75;0.50;;;14.50;99.90;;;;;;4972647;28;20400;-41
2023/10/26 09:16:45;;;;;;;0.80;0.60;;;14.40;99.90;;;;;;4972612;28;20030;-39
2023/10/26 09:19:12;;;;;;;1.00;0.60;;;14.40;99.90;;;;;;4972726;28;20468;-38
2023/10/26 09:21:51;;;;;;;1.65;0.50;;;14.40;99.90;;;;;;4972757;28;20060;-40
2023/10/26 09:24:19;;;;;;;0.95;0.60;;;14.40;99.90;;;;;;4972883;28;20026;-38
2023/10/26 09:26:44;;;;;;;1.35;0.65;;;14.40;99.90;;;;;;4972485;28;20027;-41
2023/10/26 09:29:10;;;;;;;1.17;0.50;;;14.40;99.90;;;;;;4972550;28;20070;-37
2023/10/26 09:31:50;;;;;;;0.98;0.57;;;14.40;99.90;;;;;;4972561;28;20027;-40
2023/10/26 09:34:17;;;;;;;4.03;0.80;;;14.40;99.90;;;;;;4972526;28;20026;-41
2023/10/26 09:36:56;;;;;;;1.10;0.50;;;14.40;99.90;;;;;;4972384;28;20042;-42
2023/10/26 09:39:22;;;;;;;1.50;0.68;;;14.40;99.90;;;;;;4972877;28;20026;-39
2023/10/26 09:41:49;;;;;;;1.02;0.65;;;14.40;99.90;;;;;;4972829;28;20126;-37
2023/10/26 09:44:15;;;;;;;0.68;0.50;;;14.40;99.90;;;;;;4972245;28;20506;-41
2023/10/26 09:46:42;;;;;;;2.65;0.50;;;14.40;99.90;;;;;;4972281;28;20027;-39
2023/10/26 09:49:07;;;;;;;1.15;0.47;;;14.40;99.90;;;;;;4972447;28;20034;-39
2023/10/26 09:51:33;;;;;;;1.08;0.52;;;14.40;99.90;;;;;;4972376;28;20031;-40
2023/10/26 09:54:02;;;;;;;1.67;0.57;;;14.40;99.90;;;;;;4972315;28;20038;-40
2023/10/26 09:56:30;;;;;;;1.85;0.60;;;14.40;99.90;;;;;;4972144;28;20411;-41
2023/10/26 09:58:57;;;;;;;1.42;0.63;;;14.40;99.90;;;;;;4972258;28;20065;-39
2023/10/26 10:01:37;;;;;;;1.17;0.50;;;14.40;99.90;;;;;;4972014;28;20026;-40
2023/10/26 10:04:08;;;;;;;1.13;0.52;;;14.40;99.90;;;;;;4972275;28;20042;-40
2023/10/26 10:06:54;;;;;;;0.73;0.40;;;14.40;99.90;;;;;;4972335;28;20014;-40
2023/10/26 10:09:27;;;;;;;0.98;0.60;;;14.40;99.90;;;;;;4972244;28;20472;-40
2023/10/26 10:12:04;;;;;;;1.85;0.45;;;14.40;99.90;;;;;;4972105;28;20039;-37
2023/10/26 10:14:49;;;;;;;0.90;0.50;;;14.40;99.90;;;;;;4971983;28;20027;-38
2023/10/26 10:17:15;;;;;;;;;;;14.40;99.90;;;;;;4974218;28;20404;-41
2023/10/26 10:19:43;;;;;;;1.40;0.50;;;14.40;99.90;;;;;;4975743;28;19941;-41
2023/10/26 10:22:33;;;;;;;1.15;0.63;;;14.40;99.90;;;;;;4975631;28;20023;-38
2023/10/26 10:24:59;;;;;;;1.25;0.60;;;14.40;99.90;;;;;;4975433;28;20034;-41
2023/10/26 10:27:25;;;;;;;1.45;0.60;;;14.40;99.90;;;;;;4975506;28;20023;-40
2023/10/26 10:30:02;;;;;;;1.20;0.60;;;14.40;99.90;;;;;;4975703;28;20027;-40
2023/10/26 10:32:46;;;;;;;1.13;0.70;;;14.40;99.90;;;;;;4975545;28;20043;-40
2023/10/26 10:35:21;;;;;;;0.65;0.50;;;14.40;99.90;;;;;;4975245;28;20051;-40
2023/10/26 10:38:12;;;;;;;0.65;0.60;;;14.40;99.90;;;;;;4975518;28;20034;-37
2023/10/26 10:40:58;;;;;;;0.85;0.52;;;14.40;99.90;;;;;;4975143;28;20035;-40
2023/10/26 10:43:51;;;;;;;2.05;0.98;;;14.40;99.90;;;;;;4975512;28;20027;-38
2023/10/26 10:46:26;;;;;;;1.50;0.60;;;14.40;99.90;;;;;;4974637;28;20046;-40
2023/10/26 10:49:00;;;;;;;2.67;0.70;;;14.40;99.90;;;;;;4975253;28;20043;-38
2023/10/26 10:51:38;;;;;;;1.98;0.50;;;14.40;99.90;;;;;;4975352;28;20369;-38
2023/10/26 10:54:12;;;;;;;0.52;0.30;;;14.40;99.90;;;;;;4975119;28;20396;-37
2023/10/26 10:56:39;;;;;;;1.27;0.70;;;14.40;99.90;;;;;;4975159;28;20027;-41
2023/10/26 10:59:30;;;;;;;1.25;0.65;;;14.40;99.90;;;;;;4975036;28;20034;-41
2023/10/26 11:02:08;;;;;;;1.45;0.80;;;14.40;99.90;;;;;;4974885;28;20045;-41
2023/10/26 11:04:34;;;;;;;2.65;0.85;;;14.40;99.90;;;;;;4974823;28;20023;-41
2023/10/26 11:07:01;;;;;;;1.38;0.60;;;14.40;99.90;;;;;;4974645;28;20042;-40
2023/10/26 11:09:37;;;;;;;0.95;0.68;;;14.50;99.90;;;;;;4974904;28;20034;-41
2023/10/26 11:12:11;;;;;;;1.52;0.85;;;14.40;99.90;;;;;;4974743;28;20106;-39
2023/10/26 11:14:50;;;;;;;1.45;0.70;;;14.40;99.90;;;;;;4974609;28;20034;-39
2023/10/26 11:17:17;;;;;;;1.23;0.70;;;14.40;99.90;;;;;;4974681;28;20035;-40
2023/10/26 11:19:43;;;;;;;1.38;0.75;;;14.40;99.90;;;;;;4974547;28;20459;-40
2023/10/26 11:22:09;;;;;;;0.82;0.63;;;14.40;99.90;;;;;;4974534;28;20114;-38
2023/10/26 11:24:36;;;;;;;1.10;0.70;;;14.40;99.90;;;;;;4974478;28;20027;-41
2023/10/26 11:27:21;;;;;;;1.75;0.68;;;14.40;99.90;;;;;;4974173;28;20029;-41
2023/10/26 11:30:01;;;;;;;2.75;0.98;;;14.40;99.90;;;;;;4973551;28;20019;-40
2023/10/26 11:32:28;;;;;;;1.25;0.70;;;14.40;99.90;;;;;;4974430;28;20453;-37
2023/10/26 11:35:13;;;;;;;1.40;0.77;;;14.40;99.90;;;;;;4974263;28;20094;-40
2023/10/26 11:37:48;;;;;;;3.05;0.82;;;14.40;99.90;;;;;;4973308;28;20038;-37
2023/10/26 11:40:15;;;;;;;0.70;0.50;;;14.40;99.90;;;;;;4974168;28;20027;-40
2023/10/26 11:42:56;;;;;;;1.08;0.60;;;14.50;99.90;;;;;;4974086;28;20022;-41
2023/10/26 11:45:25;;;;;;;0.90;0.70;;;14.50;99.90;;;;;;4973815;28;20101;-40
2023/10/26 11:47:54;;;;;;;1.20;0.65;;;14.40;99.90;;;;;;4973971;28;20033;-41
2023/10/26 11:50:36;;;;;;;1.27;0.77;;;14.40;99.90;;;;;;4974051;28;20023;-41
2023/10/26 11:53:04;;;;;;;1.05;0.70;;;14.50;99.90;;;;;;4974157;28;20033;-37
2023/10/26 11:55:32;;;;;;;1.27;0.80;;;14.50;99.90;;;;;;4973791;28;20047;-40
2023/10/26 11:58:02;;;;;;;0.88;0.57;;;14.50;99.90;;;;;;4973699;28;20038;-39
2023/10/26 12:00:29;;;;;;;0.77;0.47;;;14.50;99.90;;;;;;4973751;28;20129;-40
2023/10/26 12:02:58;;;;;;;1.38;0.70;;;14.50;99.90;;;;;;4973793;28;20062;-40
2023/10/26 12:05:25;;;;;;;1.00;0.68;;;14.60;99.90;;;;;;4973541;28;20462;-40
2023/10/26 12:07:52;;;;;;;0.95;0.68;;;14.60;99.90;;;;;;4973644;28;20049;-41
2023/10/26 12:10:19;;;;;;;1.48;0.80;;;14.60;99.90;;;;;;4973637;28;20054;-40
2023/10/26 12:12:45;;;;;;;1.38;0.68;;;14.60;99.90;;;;;;4973516;28;20026;-41
2023/10/26 12:15:11;;;;;;;1.00;0.57;;;14.60;99.90;;;;;;4973353;28;20031;-40
2023/10/26 12:17:37;;;;;;;1.48;0.73;;;14.60;99.90;;;;;;4973431;28;20444;-41
2023/10/26 12:20:04;;;;;;;1.17;0.70;;;14.60;99.90;;;;;;4973338;28;20034;-42
2023/10/26 12:22:30;;;;;;;0.90;0.60;;;14.70;99.90;;;;;;4973230;28;20555;-37
2023/10/26 12:24:56;;;;;;;0.70;0.60;;;14.70;99.90;;;;;;4973436;28;20105;-38
2023/10/26 12:27:22;;;;;;;1.40;0.70;;;14.70;99.90;;;;;;4973180;28;20385;-41
2023/10/26 12:29:48;;;;;;;0.93;0.60;;;14.70;99.90;;;;;;4973331;28;20109;-40
2023/10/26 12:32:14;;;;;;;1.27;0.60;;;14.70;99.90;;;;;;4973223;28;20054;-38
2023/10/26 12:34:40;;;;;;;0.70;0.55;;;14.70;99.90;;;;;;4973067;28;20035;-41
2023/10/26 12:37:06;;;;;;;1.13;0.52;;;14.70;99.90;;;;;;4972912;28;20029;-40
2023/10/26 12:39:33;;;;;;;0.90;0.60;;;14.70;99.90;;;;;;4972690;28;20040;-39
2023/10/26 12:41:58;;;;;;;1.15;0.60;;;14.80;99.90;;;;;;4972922;28;20041;-40
2023/10/26 12:44:24;;;;;;;1.08;0.70;;;14.80;99.90;;;;;;4972953;28;20027;-38
2023/10/26 12:46:54;;;;;;;1.25;0.75;;;14.80;99.90;;;;;;4973227;28;20018;-40
2023/10/26 12:49:23;;;;;;;1.48;0.60;;;14.80;99.90;;;;;;4972947;28;20471;-41